sensor_id;sensor_type;location;lat;lon;timestamp;P1;durP1;ratioP1;P2;durP2;ratioP2
19257;SDS011;9763;48.780;9.212;2023-03-24T00:02:51;1.47;;;1.00;;
19257;SDS011;9763;48.780;9.212;2023-03-24T00:06:18;1.40;;;1.00;;
19257;SDS011;9763;48.780;9.212;2023-03-24T00:09:44;1.30;;;0.87;;
19257;SDS011;9763;48.780;9.212;2023-03-24T00:13:08;1.20;;;0.90;;
19257;SDS011;9763;48.780;9.212;2023-03-24T00:16:32;1.47;;;1.20;;
19257;SDS011;9763;48.780;9.212;2023-03-24T00:19:59;1.40;;;1.10;;
19257;SDS011;9763;48.780;9.212;2023-03-24T00:23:25;1.20;;;0.90;;
19257;SDS011;9763;48.780;9.212;2023-03-24T00:26:53;1.47;;;1.07;;
19257;SDS011;9763;48.780;9.212;2023-03-24T00:30:18;1.40;;;1.17;;
19257;SDS011;9763;48.780;9.212;2023-03-24T00:33:44;1.47;;;1.07;;
19257;SDS011;9763;48.780;9.212;2023-03-24T00:37:11;1.60;;;1.10;;
19257;SDS011;9763;48.780;9.212;2023-03-24T00:40:36;1.30;;;0.90;;
19257;SDS011;9763;48.780;9.212;2023-03-24T00:44:05;1.20;;;0.90;;
19257;SDS011;9763;48.780;9.212;2023-03-24T00:47:38;1.40;;;0.90;;
19257;SDS011;9763;48.780;9.212;2023-03-24T00:51:06;1.27;;;0.90;;
19257;SDS011;9763;48.780;9.212;2023-03-24T00:54:31;1.60;;;1.10;;
19257;SDS011;9763;48.780;9.212;2023-03-24T00:57:57;1.40;;;1.13;;
19257;SDS011;9763;48.780;9.212;2023-03-24T01:01:22;1.37;;;1.03;;
19257;SDS011;9763;48.780;9.212;2023-03-24T01:04:50;1.40;;;1.00;;
19257;SDS011;9763;48.780;9.212;2023-03-24T01:08:17;1.33;;;0.93;;
19257;SDS011;9763;48.780;9.212;2023-03-24T01:11:42;1.70;;;1.00;;
19257;SDS011;9763;48.780;9.212;2023-03-24T01:15:12;1.33;;;1.10;;
19257;SDS011;9763;48.780;9.212;2023-03-24T01:18:38;1.30;;;1.00;;
19257;SDS011;9763;48.780;9.212;2023-03-24T01:22:03;1.30;;;1.00;;
19257;SDS011;9763;48.780;9.212;2023-03-24T01:25:27;1.33;;;0.97;;
19257;SDS011;9763;48.780;9.212;2023-03-24T01:28:51;1.40;;;1.00;;
19257;SDS011;9763;48.780;9.212;2023-03-24T01:32:17;1.63;;;1.10;;
19257;SDS011;9763;48.780;9.212;2023-03-24T01:35:41;1.80;;;1.33;;
19257;SDS011;9763;48.780;9.212;2023-03-24T01:39:05;1.40;;;1.07;;
19257;SDS011;9763;48.780;9.212;2023-03-24T01:42:29;1.60;;;1.10;;
19257;SDS011;9763;48.780;9.212;2023-03-24T01:45:57;1.30;;;1.00;;
19257;SDS011;9763;48.780;9.212;2023-03-24T01:49:38;1.27;;;0.90;;
19257;SDS011;9763;48.780;9.212;2023-03-24T01:53:20;1.70;;;1.20;;
19257;SDS011;9763;48.780;9.212;2023-03-24T01:56:46;1.57;;;0.93;;
19257;SDS011;9763;48.780;9.212;2023-03-24T02:00:14;1.40;;;1.10;;
19257;SDS011;9763;48.780;9.212;2023-03-24T02:04:00;1.20;;;0.80;;
19257;SDS011;9763;48.780;9.212;2023-03-24T02:07:31;1.40;;;1.10;;
19257;SDS011;9763;48.780;9.212;2023-03-24T02:11:00;1.30;;;0.90;;
19257;SDS011;9763;48.780;9.212;2023-03-24T02:14:33;1.40;;;1.00;;
19257;SDS011;9763;48.780;9.212;2023-03-24T02:18:00;1.30;;;1.00;;
19257;SDS011;9763;48.780;9.212;2023-03-24T02:25:45;1.20;;;0.80;;
19257;SDS011;9763;48.780;9.212;2023-03-24T02:38:27;1.30;;;1.07;;
19257;SDS011;9763;48.780;9.212;2023-03-24T02:42:15;1.20;;;0.70;;
19257;SDS011;9763;48.780;9.212;2023-03-24T02:45:51;1.30;;;0.90;;
19257;SDS011;9763;48.780;9.212;2023-03-24T02:49:25;1.30;;;0.90;;
19257;SDS011;9763;48.780;9.212;2023-03-24T02:52:56;1.33;;;0.80;;
19257;SDS011;9763;48.780;9.212;2023-03-24T02:56:33;1.40;;;0.90;;
19257;SDS011;9763;48.780;9.212;2023-03-24T03:00:13;1.20;;;0.90;;
19257;SDS011;9763;48.780;9.212;2023-03-24T03:04:08;1.57;;;0.93;;
19257;SDS011;9763;48.780;9.212;2023-03-24T03:07:34;1.67;;;0.90;;
19257;SDS011;9763;48.780;9.212;2023-03-24T03:11:02;1.33;;;0.97;;
19257;SDS011;9763;48.780;9.212;2023-03-24T03:14:31;1.30;;;1.00;;
19257;SDS011;9763;48.780;9.212;2023-03-24T03:18:02;1.87;;;1.30;;
19257;SDS011;9763;48.780;9.212;2023-03-24T03:21:31;2.07;;;1.10;;
19257;SDS011;9763;48.780;9.212;2023-03-24T03:25:00;1.37;;;1.00;;
19257;SDS011;9763;48.780;9.212;2023-03-24T03:28:26;1.50;;;1.00;;
19257;SDS011;9763;48.780;9.212;2023-03-24T03:31:54;1.20;;;0.87;;
19257;SDS011;9763;48.780;9.212;2023-03-24T03:35:29;1.40;;;0.90;;
19257;SDS011;9763;48.780;9.212;2023-03-24T03:39:01;1.40;;;1.00;;
19257;SDS011;9763;48.780;9.212;2023-03-24T03:42:30;1.43;;;1.00;;
19257;SDS011;9763;48.780;9.212;2023-03-24T03:45:54;1.30;;;0.80;;
19257;SDS011;9763;48.780;9.212;2023-03-24T03:49:25;1.30;;;0.80;;
19257;SDS011;9763;48.780;9.212;2023-03-24T03:52:50;1.60;;;1.10;;
19257;SDS011;9763;48.780;9.212;2023-03-24T03:56:14;2.00;;;1.10;;
19257;SDS011;9763;48.780;9.212;2023-03-24T03:59:52;1.33;;;0.80;;
19257;SDS011;9763;48.780;9.212;2023-03-24T04:03:28;1.80;;;0.90;;
19257;SDS011;9763;48.780;9.212;2023-03-24T04:07:07;1.43;;;0.90;;
19257;SDS011;9763;48.780;9.212;2023-03-24T04:19:12;1.20;;;0.80;;
19257;SDS011;9763;48.780;9.212;2023-03-24T04:22:50;1.30;;;0.90;;
19257;SDS011;9763;48.780;9.212;2023-03-24T04:26:26;1.47;;;0.87;;
19257;SDS011;9763;48.780;9.212;2023-03-24T04:30:00;1.50;;;1.00;;
19257;SDS011;9763;48.780;9.212;2023-03-24T04:33:32;1.77;;;0.90;;
19257;SDS011;9763;48.780;9.212;2023-03-24T04:37:10;1.47;;;0.97;;
19257;SDS011;9763;48.780;9.212;2023-03-24T04:40:58;1.20;;;0.80;;
19257;SDS011;9763;48.780;9.212;2023-03-24T04:44:25;1.30;;;0.90;;
19257;SDS011;9763;48.780;9.212;2023-03-24T04:48:23;1.80;;;0.80;;
19257;SDS011;9763;48.780;9.212;2023-03-24T04:52:01;1.20;;;0.80;;
19257;SDS011;9763;48.780;9.212;2023-03-24T04:55:34;1.23;;;0.93;;
19257;SDS011;9763;48.780;9.212;2023-03-24T04:59:41;1.20;;;0.80;;
19257;SDS011;9763;48.780;9.212;2023-03-24T05:03:06;1.20;;;0.80;;
19257;SDS011;9763;48.780;9.212;2023-03-24T05:06:30;1.40;;;0.90;;
19257;SDS011;9763;48.780;9.212;2023-03-24T05:09:54;1.83;;;0.90;;
19257;SDS011;9763;48.780;9.212;2023-03-24T05:13:18;1.40;;;1.07;;
19257;SDS011;9763;48.780;9.212;2023-03-24T05:16:50;1.50;;;1.10;;
19257;SDS011;9763;48.780;9.212;2023-03-24T05:20:15;1.40;;;1.20;;
19257;SDS011;9763;48.780;9.212;2023-03-24T05:23:43;1.60;;;1.03;;
19257;SDS011;9763;48.780;9.212;2023-03-24T05:27:06;1.30;;;0.93;;
19257;SDS011;9763;48.780;9.212;2023-03-24T05:30:30;1.60;;;1.00;;
19257;SDS011;9763;48.780;9.212;2023-03-24T05:34:05;1.57;;;1.27;;
19257;SDS011;9763;48.780;9.212;2023-03-24T05:37:40;1.43;;;1.23;;
19257;SDS011;9763;48.780;9.212;2023-03-24T05:41:05;1.40;;;1.10;;
19257;SDS011;9763;48.780;9.212;2023-03-24T05:44:34;1.50;;;1.20;;
19257;SDS011;9763;48.780;9.212;2023-03-24T05:48:01;1.90;;;1.20;;
19257;SDS011;9763;48.780;9.212;2023-03-24T05:51:50;1.60;;;1.13;;
19257;SDS011;9763;48.780;9.212;2023-03-24T05:55:14;1.40;;;1.13;;
19257;SDS011;9763;48.780;9.212;2023-03-24T05:58:38;1.37;;;0.90;;
19257;SDS011;9763;48.780;9.212;2023-03-24T06:02:02;1.83;;;0.87;;
19257;SDS011;9763;48.780;9.212;2023-03-24T06:05:49;1.37;;;1.10;;
19257;SDS011;9763;48.780;9.212;2023-03-24T06:09:14;1.57;;;1.07;;
19257;SDS011;9763;48.780;9.212;2023-03-24T06:12:38;1.40;;;0.90;;
19257;SDS011;9763;48.780;9.212;2023-03-24T06:16:03;1.20;;;0.90;;
19257;SDS011;9763;48.780;9.212;2023-03-24T06:19:34;1.30;;;0.83;;
19257;SDS011;9763;48.780;9.212;2023-03-24T06:23:07;1.30;;;0.93;;
19257;SDS011;9763;48.780;9.212;2023-03-24T06:26:42;1.30;;;0.80;;
19257;SDS011;9763;48.780;9.212;2023-03-24T06:30:07;1.30;;;0.90;;
19257;SDS011;9763;48.780;9.212;2023-03-24T06:33:33;2.57;;;0.90;;
19257;SDS011;9763;48.780;9.212;2023-03-24T06:36:58;1.40;;;0.80;;
19257;SDS011;9763;48.780;9.212;2023-03-24T06:40:22;1.60;;;1.20;;
19257;SDS011;9763;48.780;9.212;2023-03-24T06:43:52;1.23;;;0.90;;
19257;SDS011;9763;48.780;9.212;2023-03-24T06:47:16;1.30;;;0.97;;
19257;SDS011;9763;48.780;9.212;2023-03-24T06:50:39;1.70;;;1.00;;
19257;SDS011;9763;48.780;9.212;2023-03-24T06:54:04;1.50;;;1.20;;
19257;SDS011;9763;48.780;9.212;2023-03-24T06:57:29;1.30;;;1.00;;
19257;SDS011;9763;48.780;9.212;2023-03-24T07:01:13;1.40;;;1.10;;
19257;SDS011;9763;48.780;9.212;2023-03-24T07:04:46;1.23;;;1.00;;
19257;SDS011;9763;48.780;9.212;2023-03-24T07:08:31;1.33;;;0.90;;
19257;SDS011;9763;48.780;9.212;2023-03-24T07:11:59;1.50;;;1.03;;
19257;SDS011;9763;48.780;9.212;2023-03-24T07:15:25;1.80;;;1.30;;
19257;SDS011;9763;48.780;9.212;2023-03-24T07:18:50;1.17;;;0.87;;
19257;SDS011;9763;48.780;9.212;2023-03-24T07:22:15;1.40;;;1.00;;
19257;SDS011;9763;48.780;9.212;2023-03-24T07:26:04;1.43;;;1.10;;
19257;SDS011;9763;48.780;9.212;2023-03-24T07:29:35;1.80;;;1.10;;
19257;SDS011;9763;48.780;9.212;2023-03-24T07:33:25;1.97;;;1.70;;
19257;SDS011;9763;48.780;9.212;2023-03-24T07:36:51;1.80;;;1.20;;
19257;SDS011;9763;48.780;9.212;2023-03-24T07:40:15;2.93;;;1.30;;
19257;SDS011;9763;48.780;9.212;2023-03-24T07:43:39;1.73;;;1.20;;
19257;SDS011;9763;48.780;9.212;2023-03-24T07:47:18;2.10;;;1.10;;
19257;SDS011;9763;48.780;9.212;2023-03-24T07:50:42;1.50;;;1.17;;
19257;SDS011;9763;48.780;9.212;2023-03-24T07:54:33;2.33;;;1.20;;
19257;SDS011;9763;48.780;9.212;2023-03-24T07:57:57;3.20;;;1.60;;
19257;SDS011;9763;48.780;9.212;2023-03-24T08:01:22;1.50;;;1.10;;
19257;SDS011;9763;48.780;9.212;2023-03-24T08:04:49;3.17;;;1.20;;
19257;SDS011;9763;48.780;9.212;2023-03-24T08:08:36;1.53;;;1.20;;
19257;SDS011;9763;48.780;9.212;2023-03-24T08:12:01;1.60;;;1.27;;
19257;SDS011;9763;48.780;9.212;2023-03-24T08:15:40;2.53;;;1.27;;
19257;SDS011;9763;48.780;9.212;2023-03-24T08:19:04;1.40;;;1.10;;
19257;SDS011;9763;48.780;9.212;2023-03-24T08:22:28;1.70;;;1.23;;
19257;SDS011;9763;48.780;9.212;2023-03-24T08:25:52;1.60;;;1.20;;
19257;SDS011;9763;48.780;9.212;2023-03-24T08:29:18;1.33;;;1.10;;
19257;SDS011;9763;48.780;9.212;2023-03-24T08:32:45;1.70;;;1.23;;
19257;SDS011;9763;48.780;9.212;2023-03-24T08:36:12;1.47;;;1.23;;
19257;SDS011;9763;48.780;9.212;2023-03-24T08:39:36;1.60;;;1.27;;
19257;SDS011;9763;48.780;9.212;2023-03-24T08:43:00;1.60;;;1.20;;
19257;SDS011;9763;48.780;9.212;2023-03-24T08:46:27;1.80;;;1.50;;
19257;SDS011;9763;48.780;9.212;2023-03-24T08:49:53;2.17;;;1.40;;
19257;SDS011;9763;48.780;9.212;2023-03-24T08:53:19;1.43;;;1.20;;
19257;SDS011;9763;48.780;9.212;2023-03-24T08:56:43;1.50;;;1.27;;
19257;SDS011;9763;48.780;9.212;2023-03-24T09:00:07;1.43;;;1.13;;
19257;SDS011;9763;48.780;9.212;2023-03-24T09:03:37;1.53;;;1.30;;
19257;SDS011;9763;48.780;9.212;2023-03-24T09:07:02;1.50;;;1.23;;
19257;SDS011;9763;48.780;9.212;2023-03-24T09:10:26;1.63;;;1.30;;
19257;SDS011;9763;48.780;9.212;2023-03-24T09:13:50;1.40;;;1.30;;
19257;SDS011;9763;48.780;9.212;2023-03-24T09:17:14;1.50;;;1.13;;
19257;SDS011;9763;48.780;9.212;2023-03-24T09:20:39;1.30;;;1.00;;
19257;SDS011;9763;48.780;9.212;2023-03-24T09:24:03;1.20;;;0.90;;
19257;SDS011;9763;48.780;9.212;2023-03-24T09:27:27;1.53;;;1.40;;
19257;SDS011;9763;48.780;9.212;2023-03-24T09:30:55;1.60;;;1.10;;
19257;SDS011;9763;48.780;9.212;2023-03-24T09:34:20;1.63;;;1.47;;
19257;SDS011;9763;48.780;9.212;2023-03-24T09:37:45;1.50;;;1.20;;
19257;SDS011;9763;48.780;9.212;2023-03-24T09:41:10;1.40;;;1.10;;
19257;SDS011;9763;48.780;9.212;2023-03-24T09:44:39;1.70;;;1.30;;
19257;SDS011;9763;48.780;9.212;2023-03-24T09:48:06;1.77;;;1.23;;
19257;SDS011;9763;48.780;9.212;2023-03-24T09:51:33;1.60;;;1.43;;
19257;SDS011;9763;48.780;9.212;2023-03-24T09:55:04;1.50;;;1.40;;
19257;SDS011;9763;48.780;9.212;2023-03-24T09:58:35;3.50;;;1.10;;
19257;SDS011;9763;48.780;9.212;2023-03-24T10:02:03;3.00;;;1.30;;
19257;SDS011;9763;48.780;9.212;2023-03-24T10:05:33;1.40;;;1.30;;
19257;SDS011;9763;48.780;9.212;2023-03-24T10:09:05;1.60;;;1.27;;
19257;SDS011;9763;48.780;9.212;2023-03-24T10:12:46;2.27;;;1.13;;
19257;SDS011;9763;48.780;9.212;2023-03-24T10:16:12;1.90;;;1.47;;
19257;SDS011;9763;48.780;9.212;2023-03-24T10:19:43;1.43;;;1.23;;
19257;SDS011;9763;48.780;9.212;2023-03-24T10:23:14;1.77;;;1.40;;
19257;SDS011;9763;48.780;9.212;2023-03-24T10:26:50;1.50;;;1.30;;
19257;SDS011;9763;48.780;9.212;2023-03-24T10:30:20;1.70;;;1.23;;
19257;SDS011;9763;48.780;9.212;2023-03-24T10:33:47;1.70;;;1.20;;
19257;SDS011;9763;48.780;9.212;2023-03-24T10:37:11;1.50;;;1.40;;
19257;SDS011;9763;48.780;9.212;2023-03-24T10:40:38;5.23;;;1.30;;
19257;SDS011;9763;48.780;9.212;2023-03-24T10:44:04;2.03;;;1.23;;
19257;SDS011;9763;48.780;9.212;2023-03-24T10:47:29;1.60;;;1.10;;
19257;SDS011;9763;48.780;9.212;2023-03-24T10:50:54;1.40;;;1.00;;
19257;SDS011;9763;48.780;9.212;2023-03-24T10:54:22;1.40;;;1.00;;
19257;SDS011;9763;48.780;9.212;2023-03-24T10:57:47;1.20;;;0.90;;
19257;SDS011;9763;48.780;9.212;2023-03-24T11:05:00;1.30;;;0.90;;
19257;SDS011;9763;48.780;9.212;2023-03-24T11:08:35;1.63;;;1.00;;
19257;SDS011;9763;48.780;9.212;2023-03-24T11:12:01;4.50;;;1.13;;
19257;SDS011;9763;48.780;9.212;2023-03-24T11:15:26;1.27;;;0.90;;
19257;SDS011;9763;48.780;9.212;2023-03-24T11:18:56;4.20;;;1.00;;
19257;SDS011;9763;48.780;9.212;2023-03-24T11:22:23;1.30;;;1.10;;
19257;SDS011;9763;48.780;9.212;2023-03-24T11:25:48;1.67;;;1.10;;
19257;SDS011;9763;48.780;9.212;2023-03-24T11:29:25;1.40;;;1.20;;
19257;SDS011;9763;48.780;9.212;2023-03-24T11:32:50;1.60;;;1.00;;
19257;SDS011;9763;48.780;9.212;2023-03-24T11:40:19;1.43;;;1.10;;
19257;SDS011;9763;48.780;9.212;2023-03-24T11:43:45;1.30;;;0.90;;
19257;SDS011;9763;48.780;9.212;2023-03-24T11:47:09;1.40;;;0.87;;
19257;SDS011;9763;48.780;9.212;2023-03-24T11:50:37;1.60;;;1.10;;
19257;SDS011;9763;48.780;9.212;2023-03-24T11:54:03;1.30;;;0.90;;
19257;SDS011;9763;48.780;9.212;2023-03-24T11:57:39;1.30;;;0.90;;
19257;SDS011;9763;48.780;9.212;2023-03-24T12:01:15;1.40;;;0.93;;
19257;SDS011;9763;48.780;9.212;2023-03-24T12:05:09;1.30;;;1.00;;
19257;SDS011;9763;48.780;9.212;2023-03-24T12:08:47;1.53;;;0.90;;
19257;SDS011;9763;48.780;9.212;2023-03-24T12:12:25;1.30;;;0.80;;
19257;SDS011;9763;48.780;9.212;2023-03-24T12:16:04;1.40;;;0.90;;
19257;SDS011;9763;48.780;9.212;2023-03-24T12:19:45;1.20;;;0.80;;
19257;SDS011;9763;48.780;9.212;2023-03-24T12:23:21;3.30;;;0.80;;
19257;SDS011;9763;48.780;9.212;2023-03-24T12:26:56;1.20;;;0.70;;
19257;SDS011;9763;48.780;9.212;2023-03-24T12:30:23;1.20;;;0.70;;
19257;SDS011;9763;48.780;9.212;2023-03-24T12:34:01;2.23;;;0.77;;
19257;SDS011;9763;48.780;9.212;2023-03-24T12:37:37;1.20;;;0.70;;
19257;SDS011;9763;48.780;9.212;2023-03-24T12:41:21;1.20;;;0.80;;
19257;SDS011;9763;48.780;9.212;2023-03-24T12:45:17;1.17;;;0.70;;
19257;SDS011;9763;48.780;9.212;2023-03-24T12:49:03;1.20;;;0.80;;
19257;SDS011;9763;48.780;9.212;2023-03-24T12:52:45;1.50;;;0.73;;
19257;SDS011;9763;48.780;9.212;2023-03-24T12:56:26;1.40;;;0.77;;
19257;SDS011;9763;48.780;9.212;2023-03-24T12:59:57;1.20;;;0.70;;
19257;SDS011;9763;48.780;9.212;2023-03-24T13:03:31;1.20;;;0.80;;
19257;SDS011;9763;48.780;9.212;2023-03-24T13:07:02;1.77;;;0.93;;
19257;SDS011;9763;48.780;9.212;2023-03-24T13:10:33;1.90;;;0.70;;
19257;SDS011;9763;48.780;9.212;2023-03-24T13:14:02;1.40;;;1.00;;
19257;SDS011;9763;48.780;9.212;2023-03-24T13:17:31;1.40;;;0.80;;
19257;SDS011;9763;48.780;9.212;2023-03-24T13:21:03;1.43;;;0.80;;
19257;SDS011;9763;48.780;9.212;2023-03-24T13:24:33;1.27;;;0.70;;
19257;SDS011;9763;48.780;9.212;2023-03-24T13:27:58;1.20;;;0.80;;
19257;SDS011;9763;48.780;9.212;2023-03-24T13:31:27;1.17;;;0.80;;
19257;SDS011;9763;48.780;9.212;2023-03-24T13:35:04;1.10;;;0.67;;
19257;SDS011;9763;48.780;9.212;2023-03-24T13:38:34;1.30;;;0.70;;
19257;SDS011;9763;48.780;9.212;2023-03-24T13:42:02;1.30;;;0.80;;
19257;SDS011;9763;48.780;9.212;2023-03-24T13:45:30;1.37;;;0.83;;
19257;SDS011;9763;48.780;9.212;2023-03-24T13:49:02;1.10;;;0.70;;
19257;SDS011;9763;48.780;9.212;2023-03-24T13:52:34;1.20;;;0.80;;
19257;SDS011;9763;48.780;9.212;2023-03-24T13:56:00;1.20;;;0.80;;
19257;SDS011;9763;48.780;9.212;2023-03-24T13:59:28;1.83;;;0.93;;
19257;SDS011;9763;48.780;9.212;2023-03-24T14:02:54;1.27;;;0.90;;
19257;SDS011;9763;48.780;9.212;2023-03-24T14:06:22;1.43;;;1.00;;
19257;SDS011;9763;48.780;9.212;2023-03-24T14:10:23;1.87;;;0.83;;
19257;SDS011;9763;48.780;9.212;2023-03-24T14:14:04;1.20;;;0.80;;
19257;SDS011;9763;48.780;9.212;2023-03-24T14:17:30;1.10;;;0.70;;
19257;SDS011;9763;48.780;9.212;2023-03-24T14:20:57;1.40;;;0.73;;
19257;SDS011;9763;48.780;9.212;2023-03-24T14:24:22;1.30;;;0.90;;
19257;SDS011;9763;48.780;9.212;2023-03-24T14:27:48;2.03;;;0.90;;
19257;SDS011;9763;48.780;9.212;2023-03-24T14:31:23;2.80;;;1.07;;
19257;SDS011;9763;48.780;9.212;2023-03-24T14:34:53;1.90;;;0.70;;
19257;SDS011;9763;48.780;9.212;2023-03-24T14:38:20;3.20;;;0.80;;
19257;SDS011;9763;48.780;9.212;2023-03-24T14:41:46;2.00;;;1.10;;
19257;SDS011;9763;48.780;9.212;2023-03-24T14:49:00;1.17;;;0.70;;
19257;SDS011;9763;48.780;9.212;2023-03-24T14:52:33;1.53;;;0.80;;
19257;SDS011;9763;48.780;9.212;2023-03-24T14:56:01;1.20;;;0.70;;
19257;SDS011;9763;48.780;9.212;2023-03-24T14:59:29;1.37;;;0.73;;
19257;SDS011;9763;48.780;9.212;2023-03-24T15:03:09;1.30;;;0.70;;
19257;SDS011;9763;48.780;9.212;2023-03-24T15:06:42;1.20;;;0.70;;
19257;SDS011;9763;48.780;9.212;2023-03-24T15:10:13;2.30;;;0.80;;
19257;SDS011;9763;48.780;9.212;2023-03-24T15:13:38;1.30;;;0.80;;
19257;SDS011;9763;48.780;9.212;2023-03-24T15:17:05;1.20;;;0.70;;
19257;SDS011;9763;48.780;9.212;2023-03-24T15:20:40;1.20;;;0.60;;
19257;SDS011;9763;48.780;9.212;2023-03-24T15:24:24;1.83;;;0.80;;
19257;SDS011;9763;48.780;9.212;2023-03-24T15:27:52;2.20;;;0.80;;
19257;SDS011;9763;48.780;9.212;2023-03-24T15:31:18;1.20;;;0.80;;
19257;SDS011;9763;48.780;9.212;2023-03-24T15:34:45;1.20;;;0.73;;
19257;SDS011;9763;48.780;9.212;2023-03-24T15:38:18;1.40;;;0.70;;
19257;SDS011;9763;48.780;9.212;2023-03-24T15:41:44;1.20;;;0.70;;
19257;SDS011;9763;48.780;9.212;2023-03-24T15:45:18;1.40;;;0.80;;
19257;SDS011;9763;48.780;9.212;2023-03-24T15:48:45;1.10;;;0.60;;
19257;SDS011;9763;48.780;9.212;2023-03-24T15:52:22;1.20;;;0.70;;
19257;SDS011;9763;48.780;9.212;2023-03-24T15:56:06;1.53;;;0.70;;
19257;SDS011;9763;48.780;9.212;2023-03-24T15:59:41;1.73;;;0.90;;
19257;SDS011;9763;48.780;9.212;2023-03-24T16:03:10;1.20;;;0.80;;
19257;SDS011;9763;48.780;9.212;2023-03-24T16:06:38;1.10;;;0.70;;
19257;SDS011;9763;48.780;9.212;2023-03-24T16:10:24;1.10;;;0.70;;
19257;SDS011;9763;48.780;9.212;2023-03-24T16:13:53;1.37;;;0.70;;
19257;SDS011;9763;48.780;9.212;2023-03-24T16:17:18;1.10;;;0.60;;
19257;SDS011;9763;48.780;9.212;2023-03-24T16:20:43;1.20;;;0.67;;
19257;SDS011;9763;48.780;9.212;2023-03-24T16:24:07;1.30;;;0.80;;
19257;SDS011;9763;48.780;9.212;2023-03-24T16:27:31;1.10;;;0.60;;
19257;SDS011;9763;48.780;9.212;2023-03-24T16:30:57;1.20;;;0.80;;
19257;SDS011;9763;48.780;9.212;2023-03-24T16:34:24;1.40;;;0.80;;
19257;SDS011;9763;48.780;9.212;2023-03-24T16:37:49;1.20;;;0.80;;
19257;SDS011;9763;48.780;9.212;2023-03-24T16:41:13;1.40;;;0.90;;
19257;SDS011;9763;48.780;9.212;2023-03-24T16:44:37;1.20;;;0.73;;
19257;SDS011;9763;48.780;9.212;2023-03-24T16:48:01;1.30;;;0.90;;
19257;SDS011;9763;48.780;9.212;2023-03-24T16:51:25;1.30;;;0.70;;
19257;SDS011;9763;48.780;9.212;2023-03-24T16:54:51;1.10;;;0.70;;
19257;SDS011;9763;48.780;9.212;2023-03-24T16:58:15;1.83;;;0.80;;
19257;SDS011;9763;48.780;9.212;2023-03-24T17:01:40;1.40;;;0.80;;
19257;SDS011;9763;48.780;9.212;2023-03-24T17:05:09;1.20;;;0.80;;
19257;SDS011;9763;48.780;9.212;2023-03-24T17:08:40;1.50;;;0.80;;
19257;SDS011;9763;48.780;9.212;2023-03-24T17:12:08;1.13;;;0.63;;
19257;SDS011;9763;48.780;9.212;2023-03-24T17:15:32;1.10;;;0.70;;
19257;SDS011;9763;48.780;9.212;2023-03-24T17:18:56;1.30;;;0.80;;
19257;SDS011;9763;48.780;9.212;2023-03-24T17:22:19;1.30;;;0.90;;
19257;SDS011;9763;48.780;9.212;2023-03-24T17:25:46;1.10;;;0.70;;
19257;SDS011;9763;48.780;9.212;2023-03-24T17:29:11;1.20;;;0.70;;
19257;SDS011;9763;48.780;9.212;2023-03-24T17:32:35;1.40;;;0.70;;
19257;SDS011;9763;48.780;9.212;2023-03-24T17:36:00;1.30;;;0.80;;
19257;SDS011;9763;48.780;9.212;2023-03-24T17:39:24;1.63;;;0.93;;
19257;SDS011;9763;48.780;9.212;2023-03-24T17:42:48;1.20;;;0.80;;
19257;SDS011;9763;48.780;9.212;2023-03-24T17:46:13;1.17;;;0.80;;
19257;SDS011;9763;48.780;9.212;2023-03-24T17:49:37;1.30;;;0.77;;
19257;SDS011;9763;48.780;9.212;2023-03-24T17:53:01;1.23;;;0.90;;
19257;SDS011;9763;48.780;9.212;2023-03-24T17:56:26;1.60;;;0.87;;
19257;SDS011;9763;48.780;9.212;2023-03-24T17:59:49;1.10;;;0.70;;
19257;SDS011;9763;48.780;9.212;2023-03-24T18:03:15;1.30;;;1.00;;
19257;SDS011;9763;48.780;9.212;2023-03-24T18:06:39;1.80;;;0.90;;
19257;SDS011;9763;48.780;9.212;2023-03-24T18:10:03;1.20;;;0.83;;
19257;SDS011;9763;48.780;9.212;2023-03-24T18:13:28;1.10;;;0.80;;
19257;SDS011;9763;48.780;9.212;2023-03-24T18:16:51;1.30;;;0.80;;
19257;SDS011;9763;48.780;9.212;2023-03-24T18:20:17;1.20;;;0.80;;
19257;SDS011;9763;48.780;9.212;2023-03-24T18:23:41;1.30;;;0.83;;
19257;SDS011;9763;48.780;9.212;2023-03-24T18:27:07;1.17;;;0.80;;
19257;SDS011;9763;48.780;9.212;2023-03-24T18:30:31;1.77;;;1.10;;
19257;SDS011;9763;48.780;9.212;2023-03-24T18:33:55;1.30;;;0.80;;
19257;SDS011;9763;48.780;9.212;2023-03-24T18:37:20;1.20;;;0.90;;
19257;SDS011;9763;48.780;9.212;2023-03-24T18:40:44;1.10;;;0.70;;
19257;SDS011;9763;48.780;9.212;2023-03-24T18:44:10;1.20;;;0.83;;
19257;SDS011;9763;48.780;9.212;2023-03-24T18:47:36;1.57;;;1.27;;
19257;SDS011;9763;48.780;9.212;2023-03-24T18:51:00;1.60;;;1.00;;
19257;SDS011;9763;48.780;9.212;2023-03-24T18:54:25;1.30;;;0.90;;
19257;SDS011;9763;48.780;9.212;2023-03-24T18:57:49;1.20;;;1.00;;
19257;SDS011;9763;48.780;9.212;2023-03-24T19:01:14;1.70;;;1.13;;
19257;SDS011;9763;48.780;9.212;2023-03-24T19:04:43;1.60;;;1.10;;
19257;SDS011;9763;48.780;9.212;2023-03-24T19:08:09;1.30;;;0.80;;
19257;SDS011;9763;48.780;9.212;2023-03-24T19:11:37;1.23;;;0.80;;
19257;SDS011;9763;48.780;9.212;2023-03-24T19:15:04;2.13;;;0.90;;
19257;SDS011;9763;48.780;9.212;2023-03-24T19:18:29;1.30;;;1.00;;
19257;SDS011;9763;48.780;9.212;2023-03-24T19:21:53;1.23;;;0.87;;
19257;SDS011;9763;48.780;9.212;2023-03-24T19:25:17;1.40;;;0.90;;
19257;SDS011;9763;48.780;9.212;2023-03-24T19:28:42;1.40;;;1.10;;
19257;SDS011;9763;48.780;9.212;2023-03-24T19:32:07;1.20;;;0.97;;
19257;SDS011;9763;48.780;9.212;2023-03-24T19:35:31;1.30;;;0.97;;
19257;SDS011;9763;48.780;9.212;2023-03-24T19:38:56;1.87;;;1.20;;
19257;SDS011;9763;48.780;9.212;2023-03-24T19:42:20;1.50;;;1.40;;
19257;SDS011;9763;48.780;9.212;2023-03-24T19:45:48;1.37;;;1.00;;
19257;SDS011;9763;48.780;9.212;2023-03-24T19:49:13;1.20;;;0.90;;
19257;SDS011;9763;48.780;9.212;2023-03-24T19:52:37;1.43;;;1.07;;
19257;SDS011;9763;48.780;9.212;2023-03-24T19:56:04;1.30;;;1.00;;
19257;SDS011;9763;48.780;9.212;2023-03-24T19:59:28;1.60;;;0.90;;
19257;SDS011;9763;48.780;9.212;2023-03-24T20:02:54;1.30;;;0.87;;
19257;SDS011;9763;48.780;9.212;2023-03-24T20:06:18;1.90;;;1.00;;
19257;SDS011;9763;48.780;9.212;2023-03-24T20:09:42;1.50;;;0.90;;
19257;SDS011;9763;48.780;9.212;2023-03-24T20:13:06;1.40;;;1.00;;
19257;SDS011;9763;48.780;9.212;2023-03-24T20:16:30;1.47;;;1.10;;
19257;SDS011;9763;48.780;9.212;2023-03-24T20:19:56;1.53;;;1.13;;
19257;SDS011;9763;48.780;9.212;2023-03-24T20:23:20;1.80;;;1.10;;
19257;SDS011;9763;48.780;9.212;2023-03-24T20:26:44;1.37;;;1.00;;
19257;SDS011;9763;48.780;9.212;2023-03-24T20:30:09;2.10;;;1.00;;
19257;SDS011;9763;48.780;9.212;2023-03-24T20:33:35;1.37;;;1.10;;
19257;SDS011;9763;48.780;9.212;2023-03-24T20:37:00;1.50;;;1.20;;
19257;SDS011;9763;48.780;9.212;2023-03-24T20:40:25;1.77;;;0.90;;
19257;SDS011;9763;48.780;9.212;2023-03-24T20:43:48;1.80;;;1.27;;
19257;SDS011;9763;48.780;9.212;2023-03-24T20:47:13;1.60;;;1.00;;
19257;SDS011;9763;48.780;9.212;2023-03-24T20:50:37;1.30;;;0.87;;
19257;SDS011;9763;48.780;9.212;2023-03-24T20:54:02;1.30;;;1.00;;
19257;SDS011;9763;48.780;9.212;2023-03-24T20:57:28;2.03;;;1.00;;
19257;SDS011;9763;48.780;9.212;2023-03-24T21:00:52;1.30;;;1.00;;
19257;SDS011;9763;48.780;9.212;2023-03-24T21:04:17;1.43;;;0.90;;
19257;SDS011;9763;48.780;9.212;2023-03-24T21:07:41;2.07;;;1.00;;
19257;SDS011;9763;48.780;9.212;2023-03-24T21:11:08;1.20;;;0.90;;
19257;SDS011;9763;48.780;9.212;2023-03-24T21:14:32;1.30;;;0.90;;
19257;SDS011;9763;48.780;9.212;2023-03-24T21:17:57;1.60;;;1.13;;
19257;SDS011;9763;48.780;9.212;2023-03-24T21:21:21;1.80;;;1.10;;
19257;SDS011;9763;48.780;9.212;2023-03-24T21:24:45;1.40;;;1.10;;
19257;SDS011;9763;48.780;9.212;2023-03-24T21:28:10;1.80;;;1.13;;
19257;SDS011;9763;48.780;9.212;2023-03-24T21:31:35;1.40;;;1.00;;
19257;SDS011;9763;48.780;9.212;2023-03-24T21:34:59;1.60;;;1.10;;
19257;SDS011;9763;48.780;9.212;2023-03-24T21:38:23;1.30;;;0.90;;
19257;SDS011;9763;48.780;9.212;2023-03-24T21:41:48;1.77;;;1.00;;
19257;SDS011;9763;48.780;9.212;2023-03-24T21:45:15;1.50;;;1.10;;
19257;SDS011;9763;48.780;9.212;2023-03-24T21:48:40;1.50;;;1.30;;
19257;SDS011;9763;48.780;9.212;2023-03-24T21:52:11;1.50;;;1.20;;